createdAt,value
2022-09-15T00:01:39.362Z,100.00
2022-09-15T00:04:08.916Z,100.00
2022-09-15T00:06:37.406Z,100.00
2022-09-15T00:09:05.904Z,100.00
2022-09-15T00:11:37.140Z,100.00
2022-09-15T00:14:07.959Z,100.00
2022-09-15T00:16:36.305Z,100.00
2022-09-15T00:19:06.649Z,100.00
2022-09-15T00:21:37.695Z,100.00
2022-09-15T00:24:06.549Z,100.00
2022-09-15T00:26:36.497Z,100.00
2022-09-15T00:29:06.054Z,100.00
2022-09-15T00:31:34.759Z,100.00
2022-09-15T00:34:04.370Z,100.00
2022-09-15T00:36:33.003Z,100.00
2022-09-15T00:39:01.481Z,100.00
2022-09-15T00:41:30.387Z,100.00
2022-09-15T00:44:26.172Z,100.00
2022-09-15T00:47:15.618Z,100.00
2022-09-15T00:49:50.018Z,100.00
2022-09-15T00:52:25.689Z,100.00
2022-09-15T00:55:13.156Z,100.00
2022-09-15T00:57:44.279Z,100.00
2022-09-15T01:00:16.746Z,100.00
2022-09-15T01:02:47.486Z,100.00
2022-09-15T01:05:19.159Z,100.00
2022-09-15T01:07:51.618Z,100.00
2022-09-15T01:10:32.142Z,100.00
2022-09-15T01:13:04.041Z,100.00
2022-09-15T01:16:11.190Z,100.00
2022-09-15T01:19:01.018Z,100.00
2022-09-15T01:21:32.174Z,100.00
2022-09-15T01:24:32.553Z,100.00
2022-09-15T01:27:42.900Z,100.00
2022-09-15T01:30:25.365Z,100.00
2022-09-15T01:33:05.693Z,100.00
2022-09-15T01:35:56.990Z,100.00
2022-09-15T01:38:54.345Z,100.00
2022-09-15T01:41:26.273Z,100.00
2022-09-15T01:44:12.645Z,100.00
2022-09-15T01:46:47.958Z,100.00
2022-09-15T01:49:21.899Z,100.00
2022-09-15T01:51:53.459Z,100.00
2022-09-15T01:54:29.008Z,100.00
2022-09-15T01:56:57.996Z,100.00
2022-09-15T01:59:26.248Z,100.00
2022-09-15T02:02:02.436Z,100.00
2022-09-15T02:05:01.739Z,100.00
2022-09-15T02:08:05.729Z,100.00
2022-09-15T02:10:47.339Z,100.00
2022-09-15T02:13:35.447Z,100.00
2022-09-15T02:16:06.952Z,100.00
2022-09-15T02:18:48.865Z,100.00
2022-09-15T02:21:29.992Z,100.00
2022-09-15T02:24:04.614Z,100.00
2022-09-15T02:26:35.942Z,100.00
2022-09-15T02:29:09.259Z,100.00
2022-09-15T02:31:40.004Z,100.00
2022-09-15T02:34:16.291Z,100.00
2022-09-15T02:36:45.953Z,100.00
2022-09-15T02:39:19.742Z,100.00
2022-09-15T02:41:49.349Z,100.00
2022-09-15T02:44:17.519Z,100.00
2022-09-15T02:46:45.709Z,100.00
2022-09-15T02:49:14.465Z,100.00
2022-09-15T02:51:42.850Z,100.00
2022-09-15T02:54:12.145Z,100.00
2022-09-15T02:56:41.162Z,100.00
2022-09-15T02:59:09.558Z,100.00
2022-09-15T03:01:39.457Z,100.00
2022-09-15T03:04:07.778Z,100.00
2022-09-15T03:06:36.199Z,100.00
2022-09-15T03:09:07.798Z,100.00
2022-09-15T03:11:36.774Z,100.00
2022-09-15T03:14:07.166Z,100.00
2022-09-15T03:16:36.058Z,100.00
2022-09-15T03:19:05.985Z,100.00
2022-09-15T03:21:36.003Z,100.00
2022-09-15T03:24:04.662Z,100.00
2022-09-15T03:26:32.964Z,100.00
2022-09-15T03:29:01.184Z,100.00
2022-09-15T03:31:29.578Z,100.00
2022-09-15T03:33:58.395Z,100.00
2022-09-15T03:36:26.714Z,100.00
2022-09-15T03:38:58.335Z,100.00
2022-09-15T03:41:28.041Z,100.00
2022-09-15T03:43:56.933Z,100.00
2022-09-15T03:46:25.149Z,100.00
2022-09-15T03:48:53.418Z,100.00
2022-09-15T03:51:22.254Z,100.00
2022-09-15T03:53:50.521Z,100.00
2022-09-15T03:56:28.091Z,100.00
2022-09-15T03:58:56.470Z,100.00
2022-09-15T04:01:25.958Z,100.00
2022-09-15T04:03:54.278Z,100.00
2022-09-15T04:06:23.835Z,100.00
2022-09-15T04:08:53.305Z,100.00
2022-09-15T04:11:22.833Z,100.00
2022-09-15T04:13:53.410Z,100.00
2022-09-15T04:16:24.191Z,100.00
2022-09-15T04:18:55.538Z,100.00
2022-09-15T04:21:26.878Z,100.00
2022-09-15T04:23:55.198Z,100.00
2022-09-15T04:26:35.840Z,100.00
2022-09-15T04:29:11.194Z,100.00
2022-09-15T04:31:39.885Z,100.00
2022-09-15T04:34:08.634Z,100.00
2022-09-15T04:36:37.149Z,100.00
2022-09-15T04:39:06.927Z,100.00
2022-09-15T04:41:35.309Z,100.00
2022-09-15T04:44:04.437Z,100.00
2022-09-15T04:46:32.733Z,100.00
2022-09-15T04:49:01.088Z,100.00
2022-09-15T04:51:29.431Z,100.00
2022-09-15T04:53:58.696Z,100.00
2022-09-15T04:56:28.034Z,100.00
2022-09-15T04:59:03.636Z,100.00
2022-09-15T05:01:35.913Z,100.00
2022-09-15T05:04:04.776Z,100.00
2022-09-15T05:06:35.704Z,100.00
2022-09-15T05:09:10.210Z,100.00
2022-09-15T05:11:39.446Z,100.00
2022-09-15T05:14:09.820Z,100.00
2022-09-15T05:16:40.170Z,100.00
2022-09-15T05:19:10.425Z,100.00
2022-09-15T05:21:38.766Z,100.00
2022-09-15T05:24:07.411Z,100.00
2022-09-15T05:26:35.733Z,100.00
2022-09-15T05:29:03.976Z,100.00
2022-09-15T05:31:36.270Z,100.00
2022-09-15T05:34:05.856Z,100.00
2022-09-15T05:36:34.497Z,100.00
2022-09-15T05:39:02.894Z,100.00
2022-09-15T05:41:31.401Z,100.00
2022-09-15T05:43:59.854Z,100.00
2022-09-15T05:46:29.609Z,100.00
2022-09-15T05:48:58.934Z,100.00
2022-09-15T05:51:27.977Z,100.00
2022-09-15T05:53:56.360Z,100.00
2022-09-15T05:56:24.764Z,100.00
2022-09-15T05:58:53.100Z,100.00
2022-09-15T06:01:24.574Z,100.00
2022-09-15T06:03:53.929Z,100.00
2022-09-15T06:06:23.835Z,100.00
2022-09-15T06:08:58.658Z,100.00
2022-09-15T06:11:31.220Z,100.00
2022-09-15T06:14:04.225Z,100.00
2022-09-15T06:16:35.061Z,100.00
2022-09-15T06:19:04.200Z,100.00
2022-09-15T06:21:34.068Z,100.00
2022-09-15T06:24:07.500Z,100.00
2022-09-15T06:26:36.108Z,100.00
2022-09-15T06:29:05.773Z,100.00
2022-09-15T06:31:36.307Z,100.00
2022-09-15T06:34:05.496Z,100.00
2022-09-15T06:36:34.123Z,100.00
2022-09-15T06:39:03.137Z,100.00
2022-09-15T06:41:52.449Z,100.00
2022-09-15T06:44:20.608Z,100.00
2022-09-15T06:46:49.528Z,100.00
2022-09-15T06:49:18.523Z,100.00
2022-09-15T06:51:46.790Z,100.00
2022-09-15T06:54:16.421Z,100.00
2022-09-15T06:56:46.243Z,100.00
2022-09-15T06:59:16.378Z,100.00
2022-09-15T07:01:56.223Z,100.00
2022-09-15T07:04:27.859Z,100.00
2022-09-15T07:10:11.997Z,100.00
2022-09-15T07:12:40.403Z,100.00
2022-09-15T07:15:09.635Z,100.00
2022-09-15T07:17:37.899Z,100.00
2022-09-15T07:20:06.779Z,100.00
2022-09-15T07:22:35.088Z,100.00
2022-09-15T07:25:03.435Z,100.00
2022-09-15T07:27:32.208Z,100.00
2022-09-15T07:30:00.553Z,100.00
2022-09-15T07:32:28.835Z,100.00
2022-09-15T07:34:58.510Z,100.00
2022-09-15T07:37:27.063Z,100.00
2022-09-15T07:39:55.378Z,100.00
2022-09-15T07:42:23.743Z,100.00
2022-09-15T07:44:52.301Z,100.00
2022-09-15T07:47:21.075Z,100.00
2022-09-15T07:49:50.804Z,100.00
2022-09-15T07:52:19.082Z,100.00
2022-09-15T07:54:47.359Z,100.00
2022-09-15T07:57:15.623Z,100.00
2022-09-15T07:59:43.847Z,100.00
2022-09-15T08:02:17.704Z,100.00
2022-09-15T08:04:46.691Z,100.00
2022-09-15T08:07:15.049Z,100.00
2022-09-15T08:09:43.771Z,100.00
2022-09-15T08:12:12.526Z,100.00
2022-09-15T08:14:40.850Z,100.00
2022-09-15T08:17:11.496Z,100.00
2022-09-15T08:19:40.242Z,100.00
2022-09-15T08:22:08.511Z,100.00
2022-09-15T08:24:37.696Z,100.00
2022-09-15T08:27:06.044Z,100.00
2022-09-15T08:29:34.375Z,100.00
2022-09-15T08:32:03.119Z,100.00
2022-09-15T08:34:31.908Z,100.00
2022-09-15T08:37:00.158Z,100.00
2022-09-15T08:39:28.995Z,100.00
2022-09-15T08:42:01.642Z,100.00
2022-09-15T08:44:51.700Z,100.00
2022-09-15T08:47:38.796Z,100.00
2022-09-15T08:50:43.857Z,100.00
2022-09-15T08:53:22.038Z,100.00
2022-09-15T08:55:54.639Z,100.00
2022-09-15T08:58:34.843Z,100.00
2022-09-15T09:01:37.429Z,100.00
2022-09-15T09:04:05.723Z,100.00
2022-09-15T09:06:55.810Z,100.00
2022-09-15T09:09:45.363Z,100.00
2022-09-15T09:12:41.334Z,100.00
2022-09-15T09:15:37.742Z,100.00
2022-09-15T09:18:21.353Z,100.00
2022-09-15T09:20:49.942Z,100.00
2022-09-15T09:23:24.328Z,100.00
2022-09-15T09:26:12.026Z,100.00
2022-09-15T09:28:47.830Z,100.00
2022-09-15T09:31:21.774Z,100.00
2022-09-15T09:33:52.737Z,100.00
2022-09-15T09:36:21.581Z,100.00
2022-09-15T09:38:51.007Z,100.00
2022-09-15T09:41:27.058Z,100.00
2022-09-15T09:43:56.584Z,100.00
2022-09-15T09:46:24.930Z,100.00
2022-09-15T09:49:05.080Z,100.00
2022-09-15T09:51:39.953Z,100.00
2022-09-15T09:54:18.242Z,100.00
2022-09-15T09:56:51.252Z,100.00
2022-09-15T09:59:31.642Z,100.00
2022-09-15T10:02:13.462Z,100.00
2022-09-15T10:05:12.323Z,100.00
2022-09-15T10:07:45.856Z,100.00
2022-09-15T10:10:32.510Z,100.00
2022-09-15T10:13:03.419Z,100.00
2022-09-15T10:15:35.370Z,100.00
2022-09-15T10:18:04.363Z,100.00
2022-09-15T10:20:48.240Z,100.00
2022-09-15T10:23:22.531Z,100.00
2022-09-15T10:25:59.691Z,100.00
2022-09-15T10:28:29.292Z,100.00
2022-09-15T10:31:07.809Z,100.00
2022-09-15T10:33:40.612Z,100.00
2022-09-15T10:36:19.864Z,100.00
2022-09-15T10:38:55.002Z,100.00
2022-09-15T10:41:35.250Z,100.00
2022-09-15T10:44:15.622Z,100.00
2022-09-15T10:46:44.579Z,100.00
2022-09-15T10:49:41.958Z,100.00
2022-09-15T10:52:29.283Z,100.00
2022-09-15T10:55:06.728Z,100.00
2022-09-15T10:57:44.188Z,100.00
2022-09-15T11:00:26.036Z,100.00
2022-09-15T11:03:06.037Z,100.00
2022-09-15T11:06:13.569Z,100.00
2022-09-15T11:09:06.253Z,100.00
2022-09-15T11:12:33.754Z,100.00
2022-09-15T11:15:28.607Z,100.00
2022-09-15T11:18:22.046Z,100.00
2022-09-15T11:21:09.425Z,100.00
2022-09-15T11:23:44.409Z,100.00
2022-09-15T11:26:49.180Z,100.00
2022-09-15T11:29:27.192Z,100.00
2022-09-15T11:32:05.686Z,100.00
2022-09-15T11:34:49.547Z,100.00
2022-09-15T11:37:23.833Z,100.00
2022-09-15T11:40:09.383Z,100.00
2022-09-15T11:42:57.429Z,100.00
2022-09-15T11:45:32.953Z,100.00
2022-09-15T11:48:16.170Z,99.93
2022-09-15T11:50:49.287Z,99.60
2022-09-15T11:53:24.831Z,97.47
2022-09-15T11:56:19.962Z,97.77
2022-09-15T11:59:14.600Z,96.64
2022-09-15T12:02:23.083Z,96.23
2022-09-15T12:05:42.665Z,96.33
2022-09-15T12:08:25.963Z,92.85
2022-09-15T12:10:58.059Z,91.79
2022-09-15T12:13:27.087Z,92.99
2022-09-15T12:15:56.446Z,90.99
2022-09-15T12:18:47.287Z,87.66
2022-09-15T12:21:30.811Z,89.49
2022-09-15T12:24:23.687Z,90.79
2022-09-15T12:26:52.441Z,89.95
2022-09-15T12:29:26.478Z,87.49
2022-09-15T12:32:24.869Z,87.33
2022-09-15T12:35:13.823Z,88.35
2022-09-15T12:37:46.689Z,87.87
2022-09-15T12:40:33.963Z,86.90
2022-09-15T12:43:24.473Z,86.79
2022-09-15T12:45:57.309Z,86.26
2022-09-15T12:48:28.266Z,86.70
2022-09-15T12:51:04.463Z,86.30
2022-09-15T12:53:38.154Z,86.35
2022-09-15T12:56:21.113Z,86.49
2022-09-15T12:58:51.037Z,86.00
2022-09-15T13:01:19.606Z,85.22
2022-09-15T13:03:51.126Z,85.13
2022-09-15T13:06:21.239Z,85.48
2022-09-15T13:09:02.594Z,85.47
2022-09-15T13:11:34.965Z,85.66
2022-09-15T13:14:14.850Z,85.39
2022-09-15T13:16:54.945Z,85.24
2022-09-15T13:19:36.187Z,85.79
2022-09-15T13:22:16.731Z,85.93
2022-09-15T13:25:01.621Z,86.48
2022-09-15T13:27:50.587Z,86.91
2022-09-15T13:30:21.645Z,87.65
2022-09-15T13:33:03.605Z,88.15
2022-09-15T13:35:53.086Z,88.78
2022-09-15T13:38:30.743Z,89.30
2022-09-15T13:41:09.317Z,89.62
2022-09-15T13:44:01.817Z,89.80
2022-09-15T13:47:14.713Z,90.40
2022-09-15T13:50:22.175Z,90.64
2022-09-15T13:53:24.285Z,91.26
2022-09-15T13:55:56.296Z,91.56
2022-09-15T14:01:21.677Z,91.95
2022-09-15T14:03:53.733Z,91.88
2022-09-15T14:06:44.227Z,92.14
2022-09-15T14:09:21.098Z,92.15
2022-09-15T14:11:53.664Z,92.80
2022-09-15T14:14:27.909Z,93.08
2022-09-15T14:16:57.170Z,93.64
2022-09-15T14:19:37.950Z,94.04
2022-09-15T14:22:18.679Z,94.36
2022-09-15T14:24:47.496Z,94.76
2022-09-15T14:27:24.639Z,95.06
2022-09-15T14:29:55.621Z,95.32
2022-09-15T14:32:26.964Z,95.34
2022-09-15T14:34:59.994Z,95.48
2022-09-15T14:37:32.218Z,95.78
2022-09-15T14:40:03.416Z,96.23
2022-09-15T14:42:40.959Z,96.89
2022-09-15T14:48:08.199Z,97.04
2022-09-15T14:50:38.020Z,97.14
2022-09-15T14:53:25.529Z,97.68
2022-09-15T14:56:07.664Z,98.10
2022-09-15T14:58:53.732Z,98.87
2022-09-15T15:01:31.083Z,98.57
2022-09-15T15:04:10.268Z,98.19
2022-09-15T15:06:53.620Z,98.28
2022-09-15T15:09:31.594Z,98.51
2022-09-15T15:12:06.792Z,98.78
2022-09-15T15:14:36.257Z,98.85
2022-09-15T15:17:08.628Z,98.71
2022-09-15T15:19:42.198Z,99.04
2022-09-15T15:22:13.782Z,99.61
2022-09-15T15:24:46.266Z,99.76
2022-09-15T15:27:33.004Z,99.91
2022-09-15T15:30:26.812Z,100.00
2022-09-15T15:32:56.478Z,100.00
2022-09-15T15:35:25.703Z,100.00
2022-09-15T15:38:17.169Z,100.00
2022-09-15T15:40:46.955Z,100.00
2022-09-15T15:43:26.712Z,100.00
2022-09-15T15:46:04.499Z,100.00
2022-09-15T15:48:38.152Z,100.00
2022-09-15T15:51:07.910Z,100.00
2022-09-15T15:53:36.194Z,100.00
2022-09-15T15:56:04.528Z,100.00
2022-09-15T15:58:32.859Z,100.00
2022-09-15T16:01:01.170Z,100.00
2022-09-15T16:03:29.431Z,100.00
2022-09-15T16:06:00.190Z,100.00
2022-09-15T16:08:38.271Z,100.00
2022-09-15T16:11:12.058Z,100.00
2022-09-15T16:13:42.993Z,100.00
2022-09-15T16:16:15.615Z,100.00
2022-09-15T16:18:44.596Z,100.00
2022-09-15T16:21:23.658Z,100.00
2022-09-15T16:23:51.894Z,100.00
2022-09-15T16:26:23.623Z,100.00
2022-09-15T16:28:54.544Z,100.00
2022-09-15T16:31:25.832Z,100.00
2022-09-15T16:33:54.183Z,100.00
2022-09-15T16:36:22.511Z,100.00
2022-09-15T16:38:50.907Z,100.00
2022-09-15T16:41:33.057Z,100.00
2022-09-15T16:44:04.450Z,100.00
2022-09-15T16:46:32.779Z,100.00
2022-09-15T16:49:01.026Z,100.00
2022-09-15T16:51:31.563Z,100.00
2022-09-15T16:54:00.344Z,100.00
2022-09-15T16:56:28.777Z,100.00
2022-09-15T16:59:00.421Z,100.00
2022-09-15T17:01:29.288Z,100.00
2022-09-15T17:03:57.834Z,100.00
2022-09-15T17:06:26.221Z,100.00
2022-09-15T17:08:55.917Z,100.00
2022-09-15T17:11:25.583Z,100.00
2022-09-15T17:13:54.518Z,100.00
2022-09-15T17:16:22.986Z,100.00
2022-09-15T17:18:51.342Z,100.00
2022-09-15T17:21:20.090Z,100.00
2022-09-15T17:23:50.120Z,100.00
2022-09-15T17:26:21.757Z,100.00
2022-09-15T17:28:51.279Z,100.00
2022-09-15T17:31:22.757Z,100.00
2022-09-15T17:33:52.186Z,100.00
2022-09-15T17:36:20.671Z,100.00
2022-09-15T17:38:49.141Z,100.00
2022-09-15T17:41:20.570Z,100.00
2022-09-15T17:43:50.050Z,100.00
2022-09-15T17:46:18.509Z,100.00
2022-09-15T17:48:46.819Z,100.00
2022-09-15T17:51:17.492Z,100.00
2022-09-15T17:53:47.172Z,100.00
2022-09-15T17:56:15.604Z,100.00
2022-09-15T17:58:45.127Z,100.00
2022-09-15T18:01:15.395Z,100.00
2022-09-15T18:03:45.165Z,100.00
2022-09-15T18:06:14.370Z,100.00
2022-09-15T18:08:42.834Z,100.00
2022-09-15T18:11:15.853Z,100.00
2022-09-15T18:13:44.195Z,100.00
2022-09-15T18:16:14.851Z,100.00
2022-09-15T18:18:43.513Z,100.00
2022-09-15T18:21:28.163Z,100.00
2022-09-15T18:23:56.671Z,100.00
2022-09-15T18:26:26.656Z,100.00
2022-09-15T18:28:58.259Z,100.00
2022-09-15T18:31:27.063Z,100.00
2022-09-15T18:33:56.078Z,100.00
2022-09-15T18:36:24.928Z,100.00
2022-09-15T18:38:53.327Z,100.00
2022-09-15T18:41:22.111Z,100.00
2022-09-15T18:43:57.316Z,100.00
2022-09-15T18:46:30.015Z,100.00
2022-09-15T18:48:58.886Z,100.00
2022-09-15T18:51:40.871Z,100.00
2022-09-15T18:54:15.384Z,100.00
2022-09-15T18:56:43.644Z,100.00
2022-09-15T18:59:15.523Z,100.00
2022-09-15T19:01:48.839Z,100.00
2022-09-15T19:04:19.085Z,100.00
2022-09-15T19:06:54.159Z,100.00
2022-09-15T19:09:23.703Z,100.00
2022-09-15T19:11:52.067Z,100.00
2022-09-15T19:14:20.603Z,100.00
2022-09-15T19:16:57.480Z,100.00
2022-09-15T19:19:28.347Z,100.00
2022-09-15T19:22:14.002Z,100.00
2022-09-15T19:24:46.281Z,100.00
2022-09-15T19:27:14.837Z,100.00
2022-09-15T19:30:04.331Z,100.00
2022-09-15T19:32:34.154Z,100.00
2022-09-15T19:35:02.599Z,100.00
2022-09-15T19:37:34.095Z,100.00
2022-09-15T19:40:07.794Z,100.00
2022-09-15T19:42:38.435Z,100.00
2022-09-15T19:45:09.991Z,100.00
2022-09-15T19:47:39.497Z,100.00
2022-09-15T19:50:10.073Z,100.00
2022-09-15T19:52:38.541Z,100.00
2022-09-15T19:55:09.836Z,100.00
2022-09-15T19:57:40.194Z,100.00
2022-09-15T20:00:37.123Z,100.00
2022-09-15T20:03:08.751Z,100.00
2022-09-15T20:05:39.805Z,100.00
2022-09-15T20:08:08.115Z,100.00
2022-09-15T20:17:20.032Z,100.00
2022-09-15T20:19:48.454Z,100.00
2022-09-15T20:22:16.670Z,100.00
2022-09-15T20:24:44.863Z,100.00
2022-09-15T20:27:13.168Z,100.00
2022-09-15T20:29:41.662Z,100.00
2022-09-15T20:32:09.912Z,100.00
2022-09-15T20:34:38.196Z,100.00
2022-09-15T20:37:07.221Z,100.00
2022-09-15T20:39:36.045Z,100.00
2022-09-15T20:42:04.367Z,100.00
2022-09-15T20:44:32.614Z,100.00
2022-09-15T20:47:00.846Z,100.00
2022-09-15T20:49:29.098Z,100.00
2022-09-15T20:51:57.339Z,100.00
2022-09-15T20:54:25.624Z,100.00
2022-09-15T20:56:54.343Z,100.00
2022-09-15T20:59:22.533Z,100.00
2022-09-15T21:01:50.742Z,100.00
2022-09-15T21:04:20.103Z,100.00
2022-09-15T21:06:48.491Z,100.00
2022-09-15T21:12:34.251Z,100.00
2022-09-15T21:15:03.726Z,100.00
2022-09-15T21:17:52.445Z,100.00
2022-09-15T21:20:21.436Z,100.00
2022-09-15T21:22:57.320Z,100.00
2022-09-15T21:25:27.762Z,100.00
2022-09-15T21:27:56.411Z,100.00
2022-09-15T21:30:24.755Z,100.00
2022-09-15T21:32:54.136Z,100.00
2022-09-15T21:35:23.343Z,100.00
2022-09-15T21:37:52.001Z,100.00
2022-09-15T21:40:20.288Z,100.00
2022-09-15T21:42:48.554Z,100.00
2022-09-15T21:45:16.811Z,100.00
2022-09-15T21:47:45.059Z,100.00
2022-09-15T21:50:14.460Z,100.00
2022-09-15T21:52:42.785Z,100.00
2022-09-15T21:55:11.164Z,100.00
2022-09-15T21:57:39.485Z,100.00
2022-09-15T22:00:08.963Z,100.00
2022-09-15T22:02:37.296Z,100.00
2022-09-15T22:05:06.462Z,100.00
2022-09-15T22:07:35.755Z,100.00
2022-09-15T22:10:04.427Z,100.00
2022-09-15T22:12:32.708Z,100.00
2022-09-15T22:15:00.888Z,100.00
2022-09-15T22:17:29.326Z,100.00
2022-09-15T22:19:57.552Z,100.00
2022-09-15T22:22:25.878Z,100.00
2022-09-15T22:24:54.171Z,100.00
2022-09-15T22:27:22.496Z,100.00
2022-09-15T22:29:50.810Z,100.00
2022-09-15T22:32:19.063Z,100.00
2022-09-15T22:34:48.102Z,100.00
2022-09-15T22:37:16.294Z,100.00
2022-09-15T22:39:58.408Z,100.00
2022-09-15T22:42:27.965Z,100.00
2022-09-15T22:44:56.261Z,100.00
2022-09-15T22:47:24.644Z,100.00
2022-09-15T22:49:52.872Z,100.00
2022-09-15T22:52:21.493Z,100.00
2022-09-15T22:54:49.831Z,100.00
2022-09-15T22:57:18.053Z,100.00
2022-09-15T22:59:46.352Z,100.00
2022-09-15T23:02:14.588Z,100.00
2022-09-15T23:04:42.737Z,100.00
2022-09-15T23:07:10.912Z,100.00
2022-09-15T23:09:39.270Z,100.00
2022-09-15T23:12:09.194Z,100.00
2022-09-15T23:14:37.457Z,100.00
2022-09-15T23:17:05.748Z,100.00
2022-09-15T23:19:34.051Z,100.00
2022-09-15T23:22:02.320Z,100.00
2022-09-15T23:24:31.404Z,100.00
2022-09-15T23:26:59.643Z,100.00
2022-09-15T23:29:27.937Z,100.00
2022-09-15T23:31:56.535Z,100.00
2022-09-15T23:34:24.964Z,100.00
2022-09-15T23:36:53.269Z,100.00
2022-09-15T23:39:21.551Z,100.00
2022-09-15T23:41:49.777Z,100.00
2022-09-15T23:44:18.561Z,100.00
2022-09-15T23:46:46.973Z,100.00
2022-09-15T23:49:18.559Z,100.00
2022-09-15T23:51:47.286Z,100.00
2022-09-15T23:54:15.615Z,100.00
2022-09-15T23:56:43.839Z,100.00
2022-09-15T23:59:12.130Z,100.00
